Погода Полянкина неделю

Гродненская область, Белоруссия

26 мая-01 июня
  • 26мая
    Сегодня
    +11°
    +26°
    Ясно и безоблачно
    ВремяПогодаТемператураВлажностьДавлениеВетер, м/сВероятность осадков
    00:00Небольшая облачность+16°C72 %750 мм2.1 м/с2 %
    03:00Ясно и безоблачно+15°C63 %750 мм3.2 м/с2 %
    06:00Ясно и безоблачно+14°C58 %750 мм3.0 м/с2 %
    09:00Ясно и безоблачно+19°C61 %751 мм1.4 м/с2 %
    12:00Ясно и безоблачно+24°C39 %751 мм3.0 м/с2 %
    15:00Ясно и безоблачно+26°C36 %751 мм3.0 м/с2 %
    18:00Ясно и безоблачно+25°C37 %750 мм2.6 м/с2 %
    21:00Ясно и безоблачно+20°C62 %750 мм2.2 м/с2 %
  • 27мая
    Понедельник
    +12°
    +26°
    Облачно с прояснениями
    ВремяПогодаТемператураВлажностьДавлениеВетер, м/сВероятность осадков
    00:00Практически безоблачно+15°C66 %750 мм2.3 м/с2 %
    03:00Ясно и безоблачно+13°C73 %750 мм2.2 м/с2 %
    06:00Ясно и безоблачно+13°C76 %750 мм1.4 м/с2 %
    09:00Практически безоблачно+21°C49 %751 мм0.8 м/с2 %
    12:00Облачно с прояснениями+25°C37 %751 мм3.0 м/с2 %
    15:00Облачно с прояснениями+26°C34 %750 мм3.4 м/с2 %
    18:00Ясно и безоблачно+25°C37 %749 мм2.8 м/с2 %
    21:00Ясно и безоблачно+21°C61 %748 мм2.1 м/с2 %
  • 28мая
    Вторник
    +13°
    +26°
    Небольшая облачность
    ВремяПогодаТемператураВлажностьДавлениеВетер, м/сВероятность осадков
    00:00Ясно и безоблачно+16°C74 %748 мм2.5 м/с2 %
    03:00Ясно и безоблачно+14°C77 %748 мм2.3 м/с2 %
    06:00Ясно и безоблачно+14°C79 %747 мм2.0 м/с2 %
    09:00Ясно и безоблачно+21°C61 %748 мм1.8 м/с2 %
    12:00Практически безоблачно+25°C38 %748 мм3.5 м/с2 %
    15:00Небольшая облачность+26°C37 %746 мм3.4 м/с13 %
    18:00Небольшая облачность+25°C37 %745 мм2.2 м/с20 %
    21:00Ясно и безоблачно+21°C57 %745 мм3.1 м/с7 %
  • 29мая
    Среда
    +13°
    +27°
    Практически безоблачно
    ВремяПогодаТемператураВлажностьДавлениеВетер, м/сВероятность осадков
    00:00Пасмурно, сплошная облачность+17°C81 %745 мм2.5 м/с2 %
    03:00Ясно и безоблачно+15°C80 %744 мм2.4 м/с2 %
    06:00Практически безоблачно+14°C83 %744 мм1.8 м/с2 %
    09:00Ясно и безоблачно+21°C62 %744 мм1.7 м/с2 %
    12:00Практически безоблачно+25°C28 %743 мм4.2 м/с4 %
    15:00Практически безоблачно+26°C26 %742 мм3.6 м/с20 %
    18:00Практически безоблачно+25°C28 %741 мм3.6 м/с17 %
    21:00Ясно и безоблачно+21°C44 %741 мм2.5 м/с7 %
  • 30мая
    Четверг
    +13°
    +27°
    Облачно с прояснениями
    ВремяПогодаТемператураВлажностьДавлениеВетер, м/сВероятность осадков
    00:00Ясно и безоблачно+17°C48 %741 мм2.4 м/с2 %
    03:00Ясно и безоблачно+14°C61 %740 мм2.2 м/с2 %
    06:00Облачно с прояснениями+14°C68 %740 мм1.7 м/с2 %
    09:00Облачно с прояснениями+20°C55 %740 мм1.1 м/с2 %
    12:00Облачно с прояснениями+25°C36 %740 мм3.7 м/с18 %
    15:00Облачно с прояснениями+26°C36 %740 мм3.5 м/с40 %
    18:00Практически безоблачно+25°C34 %739 мм3.3 м/с45 %
    21:00Практически безоблачно+22°C43 %739 мм3.5 м/с14 %
Мы используем cookies
Соглашаюсь